Time;durP1;ratioP1;P1;durP2;ratioP2;P2;SDS_P1;SDS_P2;PMS_P1;PMS_P2;Temp;Humidity;BMP_temperature;BMP_pressure;BME280_temperature;BME280_humidity;BME280_pressure;Samples;Min_cycle;Max_cycle;Signal;HPM_P1;HPM_P2
2022/05/21 00:00:12;;;;;;;7.30;5.00;;;;;;;;;;4957092;28;20047;-75
2022/05/21 00:02:38;;;;;;;7.95;5.07;;;;;;;;;;4956819;29;20074;-75
2022/05/21 00:05:05;;;;;;;7.93;4.78;;;;;;;;;;4956964;29;20491;-75
2022/05/21 00:07:31;;;;;;;7.38;4.78;;;;;;;;;;4956319;29;20066;-75
2022/05/21 00:09:58;;;;;;;9.10;5.38;;;;;;;;;;4956623;28;20055;-75
2022/05/21 00:12:24;;;;;;;8.18;4.82;;;;;;;;;;4956254;28;20398;-75
2022/05/21 00:14:52;;;;;;;10.70;5.03;;;;;;;;;;4956570;29;20126;-75
2022/05/21 00:17:19;;;;;;;5.80;4.75;;;;;;;;;;4956532;28;20047;-75
2022/05/21 00:19:45;;;;;;;8.55;5.30;;;;;;;;;;4956235;29;20039;-75
2022/05/21 00:22:11;;;;;;;7.97;4.47;;;;;;;;;;4956305;29;20102;-75
2022/05/21 00:24:37;;;;;;;7.63;5.32;;;;;;;;;;4956172;29;20130;-75
2022/05/21 00:27:03;;;;;;;7.05;5.32;;;;;;;;;;4956773;29;20036;-75
2022/05/21 00:29:30;;;;;;;10.98;5.45;;;;;;;;;;4956021;29;20043;-75
2022/05/21 00:31:56;;;;;;;9.43;5.28;;;;;;;;;;4956028;29;20090;-75
2022/05/21 00:34:22;;;;;;;8.57;5.13;;;;;;;;;;4956190;29;20589;-75
2022/05/21 00:36:49;;;;;;;11.30;5.30;;;;;;;;;;4955969;29;20093;-75
2022/05/21 00:39:15;;;;;;;7.25;5.28;;;;;;;;;;4956356;28;20043;-75
2022/05/21 00:41:41;;;;;;;8.32;5.18;;;;;;;;;;4959769;29;20039;-75
2022/05/21 00:44:08;;;;;;;6.25;5.00;;;;;;;;;;4960198;28;20054;-75
2022/05/21 00:46:36;;;;;;;8.00;5.30;;;;;;;;;;4960404;29;20073;-75
2022/05/21 00:49:20;;;;;;;10.13;5.25;;;;;;;;;;4959926;29;20047;-75
2022/05/21 00:51:46;;;;;;;8.73;5.18;;;;;;;;;;4960007;29;20078;-75
2022/05/21 00:54:13;;;;;;;8.23;5.10;;;;;;;;;;4960089;29;20039;-75
2022/05/21 00:56:43;;;;;;;8.20;5.35;;;;;;;;;;4960204;29;20043;-75
2022/05/21 01:01:56;;;;;;;6.80;5.15;;;;;;;;;;4959474;29;20147;-75
2022/05/21 01:04:22;;;;;;;9.50;5.60;;;;;;;;;;4960476;29;20121;-75
2022/05/21 01:06:49;;;;;;;8.48;5.05;;;;;;;;;;4959489;29;20077;-75
2022/05/21 01:09:15;;;;;;;8.13;5.85;;;;;;;;;;4959855;29;20043;-75
2022/05/21 01:11:41;;;;;;;9.30;6.03;;;;;;;;;;4959730;29;20130;-75
2022/05/21 01:14:09;;;;;;;9.07;5.43;;;;;;;;;;4959459;29;20163;-75
2022/05/21 01:16:36;;;;;;;6.65;5.10;;;;;;;;;;4959919;29;20043;-75
2022/05/21 01:19:09;;;;;;;8.57;5.28;;;;;;;;;;4959550;29;20071;-75
2022/05/21 01:21:37;;;;;;;7.57;5.32;;;;;;;;;;4959560;29;20051;-75
2022/05/21 01:24:05;;;;;;;11.95;5.78;;;;;;;;;;4959522;29;20086;-75
2022/05/21 01:26:31;;;;;;;10.68;5.10;;;;;;;;;;4959539;28;20051;-75
2022/05/21 01:28:58;;;;;;;6.95;5.57;;;;;;;;;;4959792;29;20078;-75
2022/05/21 01:31:24;;;;;;;7.15;5.15;;;;;;;;;;4958179;29;20463;-75
2022/05/21 01:33:50;;;;;;;8.82;5.30;;;;;;;;;;4959689;29;20039;-75
2022/05/21 01:36:17;;;;;;;7.57;5.43;;;;;;;;;;4959046;29;20491;-75
2022/05/21 01:38:45;;;;;;;8.70;5.43;;;;;;;;;;4959245;28;20050;-75
2022/05/21 01:41:11;;;;;;;6.72;5.07;;;;;;;;;;4959263;28;20548;-75
2022/05/21 01:46:23;;;;;;;6.88;5.35;;;;;;;;;;4958681;29;20042;-75
2022/05/21 01:48:49;;;;;;;6.57;5.13;;;;;;;;;;4958809;29;20094;-75
2022/05/21 01:51:15;;;;;;;8.75;5.35;;;;;;;;;;4957485;28;20039;-75
2022/05/21 01:53:42;;;;;;;13.63;6.43;;;;;;;;;;4958539;29;20050;-75
2022/05/21 01:56:09;;;;;;;8.98;5.38;;;;;;;;;;4959492;29;20043;-75
2022/05/21 01:58:35;;;;;;;8.77;5.50;;;;;;;;;;4958927;29;20047;-75
2022/05/21 02:01:01;;;;;;;9.25;5.40;;;;;;;;;;4958875;29;20050;-75
2022/05/21 02:03:28;;;;;;;8.52;5.60;;;;;;;;;;4958546;29;20045;-75
2022/05/21 02:05:54;;;;;;;6.93;5.85;;;;;;;;;;4958955;29;20047;-75
2022/05/21 02:08:20;;;;;;;10.68;6.00;;;;;;;;;;4958617;29;20111;-75
2022/05/21 02:10:47;;;;;;;7.20;5.18;;;;;;;;;;4959172;29;20051;-75
2022/05/21 02:13:19;;;;;;;6.65;5.25;;;;;;;;;;4958677;29;20099;-75
2022/05/21 02:15:45;;;;;;;6.95;5.43;;;;;;;;;;4958977;29;20035;-75
2022/05/21 02:18:12;;;;;;;8.63;5.97;;;;;;;;;;4958217;29;20043;-75
2022/05/21 02:20:38;;;;;;;8.38;5.80;;;;;;;;;;4958586;29;20135;-75
2022/05/21 02:23:05;;;;;;;8.48;6.00;;;;;;;;;;4958092;29;20047;-75
2022/05/21 02:25:32;;;;;;;9.90;6.15;;;;;;;;;;4958387;28;20066;-75
2022/05/21 02:27:58;;;;;;;8.25;5.60;;;;;;;;;;4958454;29;20043;-75
2022/05/21 02:30:24;;;;;;;6.75;5.40;;;;;;;;;;4958597;29;20051;-75
2022/05/21 02:32:50;;;;;;;14.32;5.53;;;;;;;;;;4958346;29;20043;-75
2022/05/21 02:35:16;;;;;;;7.80;5.70;;;;;;;;;;4958287;29;20054;-75
2022/05/21 02:40:27;;;;;;;7.50;5.30;;;;;;;;;;4957711;29;20199;-75
2022/05/21 02:42:55;;;;;;;8.68;5.80;;;;;;;;;;4957984;28;20041;-75
2022/05/21 02:45:22;;;;;;;8.48;5.30;;;;;;;;;;4957889;28;20502;-75
2022/05/21 02:47:49;;;;;;;10.93;6.03;;;;;;;;;;4958230;29;20122;-75
2022/05/21 02:50:16;;;;;;;6.75;5.40;;;;;;;;;;4957633;29;20058;-75
2022/05/21 02:52:42;;;;;;;6.78;5.70;;;;;;;;;;4957548;29;20654;-75
2022/05/21 02:55:10;;;;;;;7.32;5.47;;;;;;;;;;4957614;29;20074;-75
2022/05/21 02:57:36;;;;;;;8.32;5.75;;;;;;;;;;4957723;29;20514;-75
2022/05/21 03:00:06;;;;;;;9.52;5.18;;;;;;;;;;4957848;29;20047;-75
2022/05/21 03:02:33;;;;;;;7.18;5.80;;;;;;;;;;4957489;28;20069;-75
2022/05/21 03:04:59;;;;;;;8.02;5.53;;;;;;;;;;4957696;28;20554;-75
2022/05/21 03:07:25;;;;;;;11.10;5.80;;;;;;;;;;4957892;29;20065;-75
2022/05/21 03:12:37;;;;;;;8.10;6.00;;;;;;;;;;4957424;29;20085;-75
2022/05/21 03:15:03;;;;;;;8.52;5.45;;;;;;;;;;4957556;29;20047;-75
2022/05/21 03:17:29;;;;;;;6.18;5.32;;;;;;;;;;4957400;28;20383;-75
2022/05/21 03:19:56;;;;;;;6.82;6.13;;;;;;;;;;4957436;29;20047;-75
2022/05/21 03:22:22;;;;;;;8.02;5.47;;;;;;;;;;4957269;29;20045;-75
2022/05/21 03:24:48;;;;;;;7.53;5.93;;;;;;;;;;4957606;29;20045;-75
2022/05/21 03:27:15;;;;;;;7.10;5.60;;;;;;;;;;4957796;29;20054;-75
2022/05/21 03:29:41;;;;;;;10.27;6.07;;;;;;;;;;4957545;29;20578;-75
2022/05/21 03:32:08;;;;;;;6.57;5.57;;;;;;;;;;4957517;29;20101;-75
2022/05/21 03:34:36;;;;;;;8.45;5.72;;;;;;;;;;4957527;29;20134;-75
2022/05/21 03:37:02;;;;;;;10.27;5.70;;;;;;;;;;4957232;28;20123;-75
2022/05/21 03:39:28;;;;;;;10.45;5.97;;;;;;;;;;4957359;29;20189;-75
2022/05/21 03:41:55;;;;;;;7.80;5.70;;;;;;;;;;4957373;29;20174;-75
2022/05/21 03:44:21;;;;;;;8.25;5.22;;;;;;;;;;4957011;29;20045;-76
2022/05/21 03:46:47;;;;;;;7.75;5.60;;;;;;;;;;4957445;29;20058;-76
2022/05/21 03:51:49;;;;;;;11.07;6.07;;;;;;;;;;5054041;22;20096;-70
2022/05/21 03:54:15;;;;;;;8.55;5.47;;;;;;;;;;4976350;28;20035;-70
2022/05/21 03:59:17;;;;;;;6.00;5.38;;;;;;;;;;5128170;23;20483;-71
2022/05/21 04:01:45;;;;;;;7.03;5.78;;;;;;;;;;5015390;28;20034;-72
2022/05/21 04:06:47;;;;;;;6.15;5.53;;;;;;;;;;5266282;22;20507;-75
2022/05/21 04:09:14;;;;;;;8.25;5.38;;;;;;;;;;5015572;28;20052;-75
2022/05/21 04:11:41;;;;;;;8.40;5.63;;;;;;;;;;5015205;28;20053;-75
2022/05/21 04:14:07;;;;;;;6.00;5.40;;;;;;;;;;5015142;28;20034;-75
2022/05/21 04:16:34;;;;;;;8.20;5.90;;;;;;;;;;4997280;28;20205;-75
2022/05/21 04:19:00;;;;;;;7.88;5.47;;;;;;;;;;5015075;28;20482;-75
2022/05/21 04:21:28;;;;;;;6.38;4.88;;;;;;;;;;5014565;28;20038;-75
2022/05/21 04:23:55;;;;;;;7.35;5.18;;;;;;;;;;5015045;28;20044;-75
2022/05/21 04:26:21;;;;;;;7.43;5.45;;;;;;;;;;5014919;28;20034;-75
2022/05/21 04:28:48;;;;;;;6.68;5.88;;;;;;;;;;5014834;28;20143;-75
2022/05/21 04:31:14;;;;;;;8.00;5.60;;;;;;;;;;5014578;28;20451;-75
2022/05/21 04:33:41;;;;;;;9.32;5.18;;;;;;;;;;5014994;28;20038;-75
2022/05/21 04:36:19;;;;;;;8.70;5.60;;;;;;;;;;5014963;28;20553;-75
2022/05/21 04:38:46;;;;;;;8.05;5.50;;;;;;;;;;5015239;28;20112;-74
2022/05/21 04:41:13;;;;;;;5.80;5.15;;;;;;;;;;5014868;28;20033;-75
2022/05/21 04:43:39;;;;;;;8.82;5.00;;;;;;;;;;5014561;28;20038;-75
2022/05/21 04:46:06;;;;;;;10.23;5.22;;;;;;;;;;5015043;28;20358;-75
2022/05/21 04:48:32;;;;;;;7.57;5.25;;;;;;;;;;5014838;28;20038;-75
2022/05/21 04:50:59;;;;;;;11.82;5.20;;;;;;;;;;5014530;28;20038;-75
2022/05/21 04:53:25;;;;;;;6.35;4.85;;;;;;;;;;5014610;28;20046;-74
2022/05/21 04:55:52;;;;;;;6.72;4.60;;;;;;;;;;5014810;28;20046;-74
2022/05/21 04:58:18;;;;;;;6.07;5.03;;;;;;;;;;5014800;28;20042;-74
2022/05/21 05:00:44;;;;;;;6.60;5.05;;;;;;;;;;5015125;28;20042;-74
2022/05/21 05:03:14;;;;;;;5.78;4.43;;;;;;;;;;5014314;28;20041;-74
2022/05/21 05:05:40;;;;;;;6.63;4.70;;;;;;;;;;5014633;28;20138;-75
2022/05/21 05:08:07;;;;;;;5.65;4.60;;;;;;;;;;5014712;28;20048;-75
2022/05/21 05:10:34;;;;;;;5.60;4.53;;;;;;;;;;5013976;28;20048;-75
2022/05/21 05:13:00;;;;;;;6.57;4.38;;;;;;;;;;5014376;28;20048;-75
2022/05/21 05:15:26;;;;;;;4.82;4.22;;;;;;;;;;5014788;28;20042;-75
2022/05/21 05:17:58;;;;;;;8.32;4.57;;;;;;;;;;5014349;28;20053;-74
2022/05/21 05:20:24;;;;;;;4.07;3.55;;;;;;;;;;5014269;28;20053;-75
2022/05/21 05:22:51;;;;;;;4.28;3.88;;;;;;;;;;5014460;28;20037;-74
2022/05/21 05:25:17;;;;;;;7.65;4.38;;;;;;;;;;5014489;28;20042;-75
2022/05/21 05:27:43;;;;;;;5.72;3.60;;;;;;;;;;5017675;28;20077;-74
2022/05/21 05:30:09;;;;;;;7.05;3.70;;;;;;;;;;5018055;28;20129;-74
2022/05/21 05:32:35;;;;;;;7.47;3.88;;;;;;;;;;5017871;28;20050;-74
2022/05/21 05:35:02;;;;;;;6.35;3.70;;;;;;;;;;5017818;28;20081;-75
2022/05/21 05:37:28;;;;;;;6.10;3.40;;;;;;;;;;5017668;28;20034;-74
2022/05/21 05:39:57;;;;;;;5.38;3.50;;;;;;;;;;5017612;28;20054;-75
2022/05/21 05:42:23;;;;;;;4.65;3.40;;;;;;;;;;5017668;28;20049;-75
2022/05/21 05:44:50;;;;;;;4.65;3.42;;;;;;;;;;5018116;28;20038;-75
2022/05/21 05:47:16;;;;;;;3.75;3.10;;;;;;;;;;5017588;28;20086;-75
2022/05/21 05:49:42;;;;;;;4.55;3.17;;;;;;;;;;5017009;28;20049;-75
2022/05/21 05:52:09;;;;;;;6.10;3.10;;;;;;;;;;5017514;28;20041;-75
2022/05/21 05:54:36;;;;;;;5.57;2.95;;;;;;;;;;5017672;28;20041;-75
2022/05/21 05:57:03;;;;;;;5.18;3.30;;;;;;;;;;5017301;28;20041;-75
2022/05/21 06:04:59;;;;;;;4.07;2.97;;;;;;;;;;5016410;28;20044;-75
2022/05/21 06:07:25;;;;;;;5.22;2.90;;;;;;;;;;5017413;28;20034;-75
2022/05/21 06:09:52;;;;;;;7.47;4.03;;;;;;;;;;5016911;28;20046;-75
2022/05/21 06:12:18;;;;;;;4.32;2.85;;;;;;;;;;5016234;28;20038;-75
2022/05/21 06:14:45;;;;;;;5.20;3.00;;;;;;;;;;5004578;28;20042;-75
2022/05/21 06:17:12;;;;;;;6.97;2.80;;;;;;;;;;5008235;28;20030;-75
2022/05/21 06:19:38;;;;;;;5.97;3.20;;;;;;;;;;4997076;28;20081;-75
2022/05/21 06:22:05;;;;;;;4.57;3.30;;;;;;;;;;4999097;28;20031;-75
2022/05/21 06:24:36;;;;;;;6.60;3.20;;;;;;;;;;5005536;28;20046;-75
2022/05/21 06:27:02;;;;;;;5.95;3.38;;;;;;;;;;5017274;28;20041;-75
2022/05/21 06:29:28;;;;;;;4.32;3.22;;;;;;;;;;5000303;28;20038;-75
2022/05/21 06:31:55;;;;;;;4.72;3.15;;;;;;;;;;5003309;28;20053;-75
2022/05/21 06:34:21;;;;;;;8.90;3.78;;;;;;;;;;4999034;28;20053;-75
2022/05/21 06:36:47;;;;;;;9.02;3.88;;;;;;;;;;5016430;28;20049;-75
2022/05/21 06:39:13;;;;;;;5.43;4.18;;;;;;;;;;5012914;28;20565;-74
2022/05/21 06:41:39;;;;;;;7.75;3.45;;;;;;;;;;5015673;28;20037;-75
2022/05/21 06:44:06;;;;;;;5.82;2.95;;;;;;;;;;4997890;28;20042;-75
2022/05/21 06:46:32;;;;;;;4.45;2.90;;;;;;;;;;4997403;28;20041;-75
2022/05/21 06:48:59;;;;;;;5.93;3.15;;;;;;;;;;4995961;28;20479;-75
2022/05/21 06:51:26;;;;;;;8.20;3.00;;;;;;;;;;4996824;28;20523;-75
2022/05/21 06:53:52;;;;;;;5.57;2.75;;;;;;;;;;5020045;28;20034;-75
2022/05/21 06:56:19;;;;;;;6.28;2.90;;;;;;;;;;5032125;28;20046;-75
2022/05/21 06:58:46;;;;;;;5.47;3.25;;;;;;;;;;5015093;28;20038;-75
2022/05/21 07:01:12;;;;;;;5.75;3.33;;;;;;;;;;5013796;28;20038;-75
2022/05/21 07:03:38;;;;;;;6.07;2.78;;;;;;;;;;5002451;28;20045;-76
2022/05/21 07:08:50;;;;;;;7.60;3.45;;;;;;;;;;4996011;28;20045;-75
2022/05/21 07:11:16;;;;;;;8.40;4.00;;;;;;;;;;5005843;28;20049;-75
2022/05/21 07:13:43;;;;;;;11.32;4.90;;;;;;;;;;5015576;28;20065;-75
2022/05/21 07:16:10;;;;;;;5.03;2.63;;;;;;;;;;5015918;28;20045;-75
2022/05/21 07:18:36;;;;;;;5.82;3.50;;;;;;;;;;4999111;28;20038;-75
2022/05/21 07:21:02;;;;;;;4.00;2.72;;;;;;;;;;4998219;28;20042;-75
2022/05/21 07:23:29;;;;;;;5.50;3.50;;;;;;;;;;4998914;28;20042;-75
2022/05/21 07:25:55;;;;;;;5.22;2.78;;;;;;;;;;5005641;28;20037;-76
2022/05/21 07:28:21;;;;;;;5.65;3.53;;;;;;;;;;5014681;28;20040;-76
2022/05/21 07:30:48;;;;;;;6.82;3.00;;;;;;;;;;5014778;28;20046;-75
2022/05/21 07:33:15;;;;;;;6.70;3.15;;;;;;;;;;5014860;28;20496;-75
2022/05/21 07:35:42;;;;;;;6.63;3.00;;;;;;;;;;5014848;28;20053;-75
2022/05/21 07:38:10;;;;;;;4.43;3.00;;;;;;;;;;5013405;28;20089;-75
2022/05/21 07:40:37;;;;;;;4.35;2.72;;;;;;;;;;5014940;28;20050;-75
2022/05/21 07:43:11;;;;;;;7.35;3.17;;;;;;;;;;5015181;28;20049;-76
2022/05/21 07:45:39;;;;;;;5.20;2.55;;;;;;;;;;5015112;28;20054;-76
2022/05/21 07:48:06;;;;;;;8.73;2.63;;;;;;;;;;5009955;28;20048;-76
2022/05/21 07:50:33;;;;;;;5.25;2.25;;;;;;;;;;5014237;28;20397;-74
2022/05/21 07:52:59;;;;;;;7.95;2.53;;;;;;;;;;5014479;28;20111;-72
2022/05/21 07:55:25;;;;;;;5.55;2.50;;;;;;;;;;5008026;28;20037;-73
2022/05/21 07:57:51;;;;;;;5.13;2.60;;;;;;;;;;5009261;28;20058;-73
2022/05/21 08:00:18;;;;;;;4.55;2.40;;;;;;;;;;5014569;28;20077;-71
2022/05/21 08:02:47;;;;;;;3.15;2.15;;;;;;;;;;4997162;28;20042;-70
2022/05/21 08:05:14;;;;;;;5.78;2.50;;;;;;;;;;4994240;28;20121;-72
2022/05/21 08:07:40;;;;;;;5.43;2.20;;;;;;;;;;4998416;28;20454;-73
2022/05/21 08:10:07;;;;;;;6.05;2.40;;;;;;;;;;5007510;28;20523;-71
2022/05/21 08:12:33;;;;;;;4.00;2.25;;;;;;;;;;4995448;28;20064;-71
2022/05/21 08:15:00;;;;;;;6.10;2.35;;;;;;;;;;5003508;28;20045;-71
2022/05/21 08:17:26;;;;;;;5.07;2.33;;;;;;;;;;4993699;28;20038;-71
2022/05/21 08:19:52;;;;;;;7.38;2.20;;;;;;;;;;4998301;28;20080;-72
2022/05/21 08:27:48;;;;;;;5.28;1.90;;;;;;;;;;5004942;28;20081;-73
2022/05/21 08:30:14;;;;;;;7.13;2.40;;;;;;;;;;5007926;28;20054;-74
2022/05/21 08:32:40;;;;;;;4.45;2.08;;;;;;;;;;5014284;28;20097;-74
2022/05/21 08:35:06;;;;;;;5.00;2.00;;;;;;;;;;4991303;28;20413;-74
2022/05/21 08:37:35;;;;;;;3.53;2.28;;;;;;;;;;4994810;28;20039;-74
2022/05/21 08:40:01;;;;;;;5.40;2.10;;;;;;;;;;4977231;28;20042;-74
2022/05/21 08:42:39;;;;;;;3.85;2.10;;;;;;;;;;4977190;28;20038;-74
2022/05/21 08:45:32;;;;;;;5.43;2.22;;;;;;;;;;4995258;28;20045;-74
2022/05/21 08:48:03;;;;;;;6.53;2.50;;;;;;;;;;5002870;28;20078;-73
2022/05/21 08:50:33;;;;;;;5.22;2.15;;;;;;;;;;5014315;28;20050;-73
2022/05/21 08:52:59;;;;;;;;;;;;;;;;;;5006171;28;20046;-71
2022/05/21 08:55:31;;;;;;;3.92;2.10;;;;;;;;;;5014104;28;20005;-71
2022/05/21 08:58:00;;;;;;;4.65;2.08;;;;;;;;;;5014079;28;20042;-73
2022/05/21 09:00:30;;;;;;;6.43;2.22;;;;;;;;;;5010624;28;20046;-73
2022/05/21 09:02:57;;;;;;;4.28;2.22;;;;;;;;;;5004119;28;20042;-73
2022/05/21 09:05:24;;;;;;;5.45;2.28;;;;;;;;;;5017574;28;20057;-71
2022/05/21 09:08:09;;;;;;;5.72;2.10;;;;;;;;;;5000706;28;20440;-71
2022/05/21 09:10:44;;;;;;;3.40;2.13;;;;;;;;;;5005513;28;20068;-71
2022/05/21 09:13:20;;;;;;;6.38;2.30;;;;;;;;;;5004047;28;20069;-71
2022/05/21 09:18:32;;;;;;;5.28;2.47;;;;;;;;;;5012488;28;20045;-71
2022/05/21 09:21:00;;;;;;;4.85;2.33;;;;;;;;;;5017291;28;20038;-71
2022/05/21 09:23:27;;;;;;;6.47;3.78;;;;;;;;;;5017257;28;20038;-71
2022/05/21 09:26:07;;;;;;;4.60;2.38;;;;;;;;;;5002068;28;20042;-71
2022/05/21 09:28:37;;;;;;;3.47;2.13;;;;;;;;;;4997984;28;20046;-72
2022/05/21 09:31:05;;;;;;;7.10;2.53;;;;;;;;;;5007519;28;20296;-72
2022/05/21 09:33:38;;;;;;;5.25;2.30;;;;;;;;;;5017529;28;20042;-72
2022/05/21 09:36:05;;;;;;;9.52;2.95;;;;;;;;;;5017467;28;20057;-72
2022/05/21 09:38:33;;;;;;;4.00;2.83;;;;;;;;;;4998332;28;20069;-71
2022/05/21 09:41:16;;;;;;;5.68;2.60;;;;;;;;;;4997994;28;20133;-72
2022/05/21 09:46:39;;;;;;;6.95;2.75;;;;;;;;;;5003664;28;20092;-71
2022/05/21 09:49:25;;;;;;;6.95;2.55;;;;;;;;;;5016675;28;20115;-70
2022/05/21 09:51:55;;;;;;;2.70;1.92;;;;;;;;;;5016984;28;20515;-70
2022/05/21 09:54:21;;;;;;;;;;;;;;;;;;5017686;28;20038;-71
2022/05/21 09:56:52;;;;;;;8.48;2.97;;;;;;;;;;5009823;28;19909;-70
2022/05/21 09:59:26;;;;;;;4.00;2.75;;;;;;;;;;5015448;28;20041;-70
2022/05/21 10:01:54;;;;;;;5.28;2.30;;;;;;;;;;5016393;28;20129;-70
2022/05/21 10:04:27;;;;;;;3.58;2.33;;;;;;;;;;5016756;28;20370;-70
2022/05/21 10:07:03;;;;;;;4.90;2.88;;;;;;;;;;5016856;28;20107;-70
2022/05/21 10:12:19;;;;;;;6.30;2.60;;;;;;;;;;5015694;28;20032;-70
2022/05/21 10:15:18;;;;;;;5.45;2.67;;;;;;;;;;5016607;28;20050;-70
2022/05/21 10:17:46;;;;;;;4.97;2.72;;;;;;;;;;4959405;28;20046;-70
2022/05/21 10:20:18;;;;;;;5.50;2.70;;;;;;;;;;4996727;28;20050;-71
2022/05/21 10:22:49;;;;;;;5.78;2.65;;;;;;;;;;4996317;28;20042;-72
2022/05/21 10:25:18;;;;;;;4.80;2.45;;;;;;;;;;5006167;28;20101;-69
2022/05/21 10:28:03;;;;;;;4.50;2.20;;;;;;;;;;4996217;28;20092;-70
2022/05/21 10:30:30;;;;;;;5.15;2.47;;;;;;;;;;5008418;28;20108;-69
2022/05/21 10:33:04;;;;;;;4.93;2.30;;;;;;;;;;5003300;28;20503;-70
2022/05/21 10:35:49;;;;;;;9.52;2.60;;;;;;;;;;5000611;28;20046;-70
2022/05/21 10:38:47;;;;;;;3.88;2.67;;;;;;;;;;5001303;28;20038;-69
2022/05/21 10:41:28;;;;;;;4.03;2.55;;;;;;;;;;4973118;28;20045;-69
2022/05/21 10:43:58;;;;;;;7.63;2.90;;;;;;;;;;4999114;28;20437;-68
2022/05/21 10:46:27;;;;;;;4.68;2.40;;;;;;;;;;5010554;28;20041;-69
2022/05/21 10:49:10;;;;;;;4.10;3.10;;;;;;;;;;5016468;28;20041;-69
2022/05/21 10:51:47;;;;;;;7.75;2.80;;;;;;;;;;5001635;28;20555;-69
2022/05/21 10:54:31;;;;;;;4.78;3.17;;;;;;;;;;5006847;28;20068;-69
2022/05/21 10:56:57;;;;;;;6.25;2.95;;;;;;;;;;5016407;28;20430;-69
2022/05/21 10:59:23;;;;;;;5.95;2.45;;;;;;;;;;5016504;28;20045;-69
2022/05/21 11:01:49;;;;;;;5.55;2.80;;;;;;;;;;5015127;28;20079;-69
2022/05/21 11:04:16;;;;;;;5.00;2.55;;;;;;;;;;4996683;28;20065;-69
2022/05/21 11:07:01;;;;;;;4.55;2.20;;;;;;;;;;4995777;28;20050;-69
2022/05/21 11:09:42;;;;;;;7.10;2.80;;;;;;;;;;4996447;28;20092;-69
2022/05/21 11:12:17;;;;;;;7.88;3.38;;;;;;;;;;5000909;28;20042;-69
2022/05/21 11:15:05;;;;;;;4.20;3.00;;;;;;;;;;5006988;28;20048;-70
2022/05/21 11:17:35;;;;;;;6.45;3.65;;;;;;;;;;5001477;28;20073;-70
2022/05/21 11:20:04;;;;;;;4.45;3.28;;;;;;;;;;4995446;28;20057;-70
2022/05/21 11:22:37;;;;;;;7.65;3.30;;;;;;;;;;5004882;28;20038;-70
2022/05/21 11:25:21;;;;;;;7.75;3.53;;;;;;;;;;5012397;28;20153;-69
2022/05/21 11:27:56;;;;;;;6.93;3.40;;;;;;;;;;5011287;28;20081;-70
2022/05/21 11:30:22;;;;;;;4.38;2.58;;;;;;;;;;4996992;28;20050;-70
2022/05/21 11:38:31;;;;;;;9.77;3.15;;;;;;;;;;5001502;28;20056;-69
2022/05/21 11:43:56;;;;;;;6.50;3.15;;;;;;;;;;4994101;28;20041;-69
2022/05/21 11:46:42;;;;;;;7.70;3.17;;;;;;;;;;4994338;28;20066;-69
2022/05/21 11:49:27;;;;;;;7.20;3.05;;;;;;;;;;5011142;28;20069;-69
2022/05/21 11:51:54;;;;;;;5.55;3.20;;;;;;;;;;5014935;28;20049;-69
2022/05/21 11:54:38;;;;;;;6.70;3.00;;;;;;;;;;5001397;28;20497;-70
2022/05/21 11:57:05;;;;;;;5.40;3.03;;;;;;;;;;4997858;28;20038;-70
2022/05/21 11:59:51;;;;;;;8.77;3.55;;;;;;;;;;5007813;28;20113;-70
2022/05/21 12:02:19;;;;;;;5.50;3.00;;;;;;;;;;5000147;28;20523;-70
2022/05/21 12:04:47;;;;;;;9.07;3.35;;;;;;;;;;5007914;28;20531;-71
2022/05/21 12:07:36;;;;;;;5.85;3.42;;;;;;;;;;4996957;28;20505;-71
2022/05/21 12:10:10;;;;;;;6.55;3.30;;;;;;;;;;5002055;28;20589;-72
2022/05/21 12:12:58;;;;;;;5.88;3.13;;;;;;;;;;5004967;28;20056;-72
2022/05/21 12:15:34;;;;;;;5.38;2.95;;;;;;;;;;5009189;28;20039;-72
2022/05/21 12:18:02;;;;;;;6.28;3.28;;;;;;;;;;4995347;28;20053;-73
2022/05/21 12:20:42;;;;;;;5.80;3.05;;;;;;;;;;5003929;28;20099;-71
2022/05/21 12:23:38;;;;;;;6.57;3.50;;;;;;;;;;5014286;28;20048;-72
2022/05/21 12:26:08;;;;;;;3.85;2.90;;;;;;;;;;5003423;28;20072;-71
2022/05/21 12:28:37;;;;;;;5.43;3.10;;;;;;;;;;4992296;28;20667;-71
2022/05/21 12:31:09;;;;;;;8.93;3.20;;;;;;;;;;5012871;28;20508;-71
2022/05/21 12:34:05;;;;;;;6.20;3.45;;;;;;;;;;5014582;28;20124;-71
2022/05/21 12:36:39;;;;;;;4.93;3.38;;;;;;;;;;4981397;28;20509;-71
2022/05/21 12:39:06;;;;;;;8.48;3.58;;;;;;;;;;5003123;28;20046;-71
2022/05/21 12:41:36;;;;;;;5.78;3.25;;;;;;;;;;4994459;28;20042;-71
2022/05/21 12:44:02;;;;;;;7.28;3.50;;;;;;;;;;5000142;28;20049;-71
2022/05/21 12:46:32;;;;;;;5.55;3.33;;;;;;;;;;5004230;28;20034;-71
2022/05/21 12:48:59;;;;;;;7.93;3.00;;;;;;;;;;5011845;28;20042;-75
2022/05/21 12:51:37;;;;;;;7.18;3.53;;;;;;;;;;5012528;28;20053;-72
2022/05/21 12:54:04;;;;;;;8.07;3.50;;;;;;;;;;5003938;28;20168;-72
2022/05/21 12:56:33;;;;;;;4.70;3.13;;;;;;;;;;4999436;28;20041;-72
2022/05/21 12:59:08;;;;;;;6.18;3.30;;;;;;;;;;5008687;28;20049;-72
2022/05/21 13:01:37;;;;;;;5.78;3.13;;;;;;;;;;5010893;28;20049;-72
2022/05/21 13:04:20;;;;;;;6.65;3.80;;;;;;;;;;5018606;28;20044;-73
2022/05/21 13:06:51;;;;;;;6.20;3.58;;;;;;;;;;5029993;28;20068;-72
2022/05/21 13:09:17;;;;;;;7.00;3.47;;;;;;;;;;4996218;28;20034;-71
2022/05/21 13:11:44;;;;;;;5.25;3.40;;;;;;;;;;5000497;28;20052;-69
2022/05/21 13:14:13;;;;;;;8.38;3.47;;;;;;;;;;5001236;28;20043;-71
2022/05/21 13:16:53;;;;;;;8.50;3.40;;;;;;;;;;4995054;28;20493;-70
2022/05/21 13:19:20;;;;;;;6.90;3.28;;;;;;;;;;4995331;28;20559;-70
2022/05/21 13:22:10;;;;;;;7.38;3.72;;;;;;;;;;4994881;28;20061;-71
2022/05/21 13:24:49;;;;;;;10.43;3.53;;;;;;;;;;4993601;28;20370;-71
2022/05/21 13:27:17;;;;;;;7.50;3.47;;;;;;;;;;4993333;28;20034;-71
2022/05/21 13:29:44;;;;;;;6.88;3.50;;;;;;;;;;5000597;28;20045;-71
2022/05/21 13:32:21;;;;;;;7.20;3.63;;;;;;;;;;5012765;28;20057;-71
2022/05/21 13:34:47;;;;;;;8.52;3.60;;;;;;;;;;5012392;28;20038;-71
2022/05/21 13:37:14;;;;;;;4.07;3.53;;;;;;;;;;5013092;28;20052;-71
2022/05/21 13:39:40;;;;;;;8.07;3.90;;;;;;;;;;5014147;28;20037;-71
2022/05/21 13:42:09;;;;;;;7.25;3.45;;;;;;;;;;5014123;28;20042;-71
2022/05/21 13:44:37;;;;;;;6.45;3.50;;;;;;;;;;5014123;28;20124;-71
2022/05/21 13:47:06;;;;;;;9.18;3.30;;;;;;;;;;5014947;28;20555;-71
2022/05/21 13:49:40;;;;;;;7.28;3.60;;;;;;;;;;5000134;28;20068;-71
2022/05/21 13:52:11;;;;;;;10.82;3.38;;;;;;;;;;5017526;28;20562;-71
2022/05/21 13:54:38;;;;;;;9.93;3.63;;;;;;;;;;5017492;28;20113;-71
2022/05/21 13:57:10;;;;;;;10.00;4.10;;;;;;;;;;5014223;28;20080;-70
2022/05/21 13:59:47;;;;;;;6.07;3.78;;;;;;;;;;4998398;28;20050;-71
2022/05/21 14:02:18;;;;;;;7.45;3.67;;;;;;;;;;4999895;28;20038;-71
2022/05/21 14:04:44;;;;;;;6.35;3.88;;;;;;;;;;5017500;28;20129;-71
2022/05/21 14:07:37;;;;;;;7.82;3.75;;;;;;;;;;5002539;28;20057;-70
2022/05/21 14:10:09;;;;;;;5.97;3.53;;;;;;;;;;4995645;28;20120;-70
2022/05/21 14:12:47;;;;;;;6.35;3.42;;;;;;;;;;4997812;28;20057;-70
2022/05/21 14:15:13;;;;;;;8.05;3.75;;;;;;;;;;4998429;28;20170;-71
2022/05/21 14:17:41;;;;;;;8.40;3.72;;;;;;;;;;5008914;28;20544;-71
2022/05/21 14:20:12;;;;;;;7.32;4.63;;;;;;;;;;4997579;28;20093;-71
2022/05/21 14:22:41;;;;;;;5.95;4.00;;;;;;;;;;5009013;28;20042;-70
2022/05/21 14:25:17;;;;;;;8.30;3.97;;;;;;;;;;5008161;28;20099;-70
2022/05/21 14:27:56;;;;;;;6.65;3.55;;;;;;;;;;5007653;28;20492;-70
2022/05/21 14:30:31;;;;;;;6.85;3.55;;;;;;;;;;5007896;28;20137;-70
2022/05/21 14:32:57;;;;;;;5.88;4.00;;;;;;;;;;4996980;28;20121;-70
2022/05/21 14:35:23;;;;;;;9.05;4.60;;;;;;;;;;4995417;28;20034;-70
2022/05/21 14:37:54;;;;;;;6.43;4.03;;;;;;;;;;4996354;28;20051;-70
2022/05/21 14:40:20;;;;;;;;;;;;;;;;;;4997709;28;20034;-70
2022/05/21 14:42:50;;;;;;;7.22;4.07;;;;;;;;;;4996001;28;20380;-70
2022/05/21 14:45:16;;;;;;;8.52;4.40;;;;;;;;;;5002519;28;20050;-70
2022/05/21 14:47:52;;;;;;;10.07;4.53;;;;;;;;;;5007268;28;20046;-70
2022/05/21 14:53:23;;;;;;;9.00;4.53;;;;;;;;;;5001857;28;20083;-70
2022/05/21 14:55:49;;;;;;;9.25;4.35;;;;;;;;;;5001021;28;20501;-70
2022/05/21 14:58:16;;;;;;;17.60;4.50;;;;;;;;;;4995736;28;20042;-70
2022/05/21 15:00:42;;;;;;;8.25;4.00;;;;;;;;;;4995940;28;20053;-70
2022/05/21 15:03:09;;;;;;;8.27;4.53;;;;;;;;;;4995113;28;20379;-70
2022/05/21 15:05:36;;;;;;;12.30;4.28;;;;;;;;;;5009232;28;20058;-70
2022/05/21 15:08:03;;;;;;;7.15;4.38;;;;;;;;;;5015221;28;20500;-70
2022/05/21 15:10:29;;;;;;;7.65;5.00;;;;;;;;;;5014856;28;20050;-70
2022/05/21 15:12:55;;;;;;;8.80;4.47;;;;;;;;;;5015031;28;20038;-70
2022/05/21 15:15:22;;;;;;;6.07;3.85;;;;;;;;;;5013237;28;20582;-70
2022/05/21 15:17:48;;;;;;;8.75;4.65;;;;;;;;;;5014849;28;20037;-70
2022/05/21 15:20:15;;;;;;;15.38;4.85;;;;;;;;;;5014709;28;20058;-70
2022/05/21 15:22:42;;;;;;;10.23;4.75;;;;;;;;;;5015899;28;20089;-70
2022/05/21 15:25:12;;;;;;;10.13;5.20;;;;;;;;;;5005340;28;20054;-70
2022/05/21 15:27:38;;;;;;;8.07;4.68;;;;;;;;;;4995891;28;20497;-70
2022/05/21 15:30:08;;;;;;;10.95;5.28;;;;;;;;;;4998915;28;20046;-70
2022/05/21 15:32:35;;;;;;;6.10;4.93;;;;;;;;;;5004352;28;20121;-70
2022/05/21 15:35:01;;;;;;;8.80;4.90;;;;;;;;;;5008283;28;20118;-70
2022/05/21 15:37:27;;;;;;;12.27;4.90;;;;;;;;;;5001424;28;20042;-70
2022/05/21 15:39:53;;;;;;;13.95;5.10;;;;;;;;;;5011273;28;20037;-70
2022/05/21 15:42:23;;;;;;;8.35;4.95;;;;;;;;;;5009854;28;20049;-70
2022/05/21 15:44:49;;;;;;;8.52;4.97;;;;;;;;;;5011960;28;20038;-71
2022/05/21 15:47:16;;;;;;;10.45;5.40;;;;;;;;;;5013769;28;20038;-71